createdAt,value
2022-10-22T00:04:11.225Z,13.90
2022-10-22T00:09:39.046Z,13.90
2022-10-22T00:15:07.870Z,13.90
2022-10-22T00:20:35.909Z,13.90
2022-10-22T00:26:03.880Z,13.90
2022-10-22T00:31:31.884Z,13.90
2022-10-22T00:36:59.708Z,13.90
2022-10-22T00:42:31.594Z,13.90
2022-10-22T00:48:26.288Z,13.90
2022-10-22T00:54:04.503Z,14.00
2022-10-22T00:59:32.893Z,14.00
2022-10-22T01:05:00.702Z,13.90
2022-10-22T01:10:53.757Z,13.90
2022-10-22T01:16:59.423Z,13.80
2022-10-22T01:22:32.806Z,13.70
2022-10-22T01:28:55.408Z,13.70
2022-10-22T01:34:24.783Z,13.60
2022-10-22T01:39:53.361Z,13.60
2022-10-22T01:45:21.178Z,13.50
2022-10-22T01:50:57.862Z,13.50
2022-10-22T01:56:58.940Z,13.40
2022-10-22T02:02:29.561Z,13.40
2022-10-22T02:08:10.069Z,13.40
2022-10-22T02:13:44.276Z,13.30
2022-10-22T02:19:57.870Z,13.30
2022-10-22T02:25:32.280Z,13.30
2022-10-22T02:31:15.430Z,13.30
2022-10-22T02:36:48.095Z,13.30
2022-10-22T02:42:30.087Z,13.30
2022-10-22T02:47:58.695Z,13.30
2022-10-22T02:53:26.412Z,13.30
2022-10-22T02:58:54.208Z,13.30
2022-10-22T03:04:22.581Z,13.30
2022-10-22T03:09:50.961Z,13.30
2022-10-22T03:15:18.744Z,13.30
2022-10-22T03:20:46.628Z,13.30
2022-10-22T03:26:15.242Z,13.30
2022-10-22T03:31:43.168Z,13.30
2022-10-22T03:37:11.748Z,13.30
2022-10-22T03:42:41.243Z,13.30
2022-10-22T03:48:09.152Z,13.30
2022-10-22T03:53:37.281Z,13.20
2022-10-22T03:59:05.305Z,13.10
2022-10-22T04:04:33.528Z,13.00
2022-10-22T04:10:01.269Z,12.90
2022-10-22T04:15:29.185Z,12.80
2022-10-22T04:20:57.056Z,12.70
2022-10-22T04:26:25.818Z,12.60
2022-10-22T04:31:53.807Z,12.50
2022-10-22T04:37:21.835Z,12.50
2022-10-22T04:42:49.625Z,12.40
2022-10-22T04:48:17.457Z,12.40
2022-10-22T04:53:46.302Z,12.30
2022-10-22T04:59:14.128Z,12.30
2022-10-22T05:04:44.554Z,12.30
2022-10-22T05:10:12.372Z,12.20
2022-10-22T05:15:40.184Z,12.10
2022-10-22T05:21:14.821Z,12.10
2022-10-22T05:26:42.632Z,12.10
2022-10-22T05:32:10.552Z,12.10
2022-10-22T05:37:38.689Z,12.10
2022-10-22T05:43:06.888Z,12.10
2022-10-22T05:48:34.882Z,12.10
2022-10-22T05:54:06.537Z,12.10
2022-10-22T05:59:34.441Z,12.20
2022-10-22T06:05:02.656Z,12.30
2022-10-22T06:10:30.674Z,12.30
2022-10-22T06:15:58.633Z,12.40
2022-10-22T06:21:26.407Z,12.40
2022-10-22T06:26:54.265Z,12.40
2022-10-22T06:32:22.072Z,12.40
2022-10-22T06:37:49.946Z,12.40
2022-10-22T06:43:18.035Z,12.40
2022-10-22T06:48:57.720Z,12.40
2022-10-22T06:54:25.496Z,12.40
2022-10-22T06:59:53.261Z,12.40
2022-10-22T07:05:21.251Z,12.40
2022-10-22T07:10:49.062Z,12.40
2022-10-22T07:16:18.564Z,12.40
2022-10-22T07:21:46.411Z,12.50
2022-10-22T07:27:14.710Z,12.50
2022-10-22T07:32:42.631Z,12.50
2022-10-22T07:38:10.488Z,12.60
2022-10-22T07:43:38.652Z,12.60
2022-10-22T07:49:06.450Z,12.80
2022-10-22T07:54:34.239Z,12.90
2022-10-22T08:00:02.129Z,13.00
2022-10-22T08:05:40.067Z,13.10
2022-10-22T08:11:08.191Z,13.20
2022-10-22T08:16:36.380Z,13.30
2022-10-22T08:22:04.263Z,13.40
2022-10-22T08:27:32.157Z,13.50
2022-10-22T08:32:59.965Z,13.50
2022-10-22T08:38:27.913Z,13.60
2022-10-22T08:44:17.250Z,13.50
2022-10-22T08:49:45.260Z,13.60
2022-10-22T08:55:14.630Z,13.50
2022-10-22T09:01:00.117Z,13.60
2022-10-22T09:06:31.856Z,13.60
2022-10-22T09:12:01.052Z,13.70
2022-10-22T09:18:12.959Z,13.70
2022-10-22T09:24:10.349Z,13.70
2022-10-22T09:29:38.692Z,13.80
2022-10-22T09:35:14.524Z,13.90
2022-10-22T09:40:50.976Z,14.00
2022-10-22T09:46:23.261Z,14.10
2022-10-22T09:51:57.679Z,14.30
2022-10-22T09:57:26.577Z,14.40
2022-10-22T10:03:00.211Z,14.40
2022-10-22T10:08:27.976Z,14.40
2022-10-22T10:14:04.265Z,14.50
2022-10-22T10:20:15.130Z,14.50
2022-10-22T10:26:06.751Z,14.60
2022-10-22T10:32:38.379Z,14.80
2022-10-22T10:38:09.102Z,15.00
2022-10-22T10:44:33.788Z,15.10
2022-10-22T10:50:28.680Z,15.40
2022-10-22T10:56:27.079Z,15.60
2022-10-22T11:02:54.244Z,15.90
2022-10-22T11:08:39.985Z,16.40
2022-10-22T11:14:22.656Z,16.80
2022-10-22T11:20:00.255Z,16.80
2022-10-22T11:25:37.159Z,16.70
2022-10-22T11:31:14.879Z,16.90
2022-10-22T11:36:43.877Z,17.00
2022-10-22T11:42:43.325Z,17.20
2022-10-22T11:48:11.158Z,17.50
2022-10-22T11:53:39.492Z,17.70
2022-10-22T11:59:41.735Z,17.80
2022-10-22T12:05:22.549Z,17.90
2022-10-22T12:11:10.907Z,18.20
2022-10-22T12:16:56.054Z,18.20
2022-10-22T12:22:33.902Z,18.20
2022-10-22T12:28:01.741Z,18.10
2022-10-22T12:33:32.750Z,18.00
2022-10-22T12:39:03.259Z,18.00
2022-10-22T12:44:33.261Z,17.80
2022-10-22T12:50:04.992Z,17.70
2022-10-22T12:55:34.265Z,17.50
2022-10-22T13:01:02.419Z,17.40
2022-10-22T13:06:30.273Z,17.30
2022-10-22T13:12:05.401Z,17.20
2022-10-22T13:17:42.411Z,17.20
2022-10-22T13:23:23.805Z,17.20
2022-10-22T13:28:55.233Z,17.20
2022-10-22T13:34:26.046Z,17.50
2022-10-22T13:39:53.809Z,18.80
2022-10-22T13:45:21.844Z,19.30
2022-10-22T13:50:50.507Z,20.20
2022-10-22T13:56:21.338Z,21.80
2022-10-22T14:01:49.098Z,23.30
2022-10-22T14:07:17.512Z,22.70
2022-10-22T14:12:49.445Z,22.00
2022-10-22T14:18:29.082Z,21.90
2022-10-22T14:23:56.780Z,21.70
2022-10-22T14:29:24.511Z,20.80
2022-10-22T14:34:52.295Z,20.60
2022-10-22T14:40:21.275Z,21.90
2022-10-22T14:45:50.689Z,22.60
2022-10-22T14:51:21.120Z,22.70
2022-10-22T14:56:48.903Z,22.30
2022-10-22T15:02:16.644Z,22.00
2022-10-22T15:07:45.688Z,21.70
2022-10-22T15:13:14.553Z,21.10
2022-10-22T15:18:42.719Z,20.60
2022-10-22T15:24:10.557Z,20.30
2022-10-22T15:29:38.276Z,20.10
2022-10-22T15:35:08.149Z,19.70
2022-10-22T15:40:35.927Z,19.50
2022-10-22T15:46:16.591Z,19.10
2022-10-22T15:51:44.992Z,18.70
2022-10-22T15:57:12.917Z,18.40
2022-10-22T16:02:40.842Z,18.10
2022-10-22T16:08:08.875Z,17.80
2022-10-22T16:13:37.627Z,17.50
2022-10-22T16:19:06.502Z,17.20
2022-10-22T16:24:34.313Z,16.90
2022-10-22T16:30:02.197Z,16.60
2022-10-22T16:35:30.924Z,16.40
2022-10-22T16:41:20.479Z,16.10
2022-10-22T16:46:48.358Z,15.80
2022-10-22T16:52:16.163Z,15.60
2022-10-22T16:57:44.171Z,15.30
2022-10-22T17:03:12.324Z,15.10
2022-10-22T17:08:41.365Z,14.90
2022-10-22T17:14:12.555Z,14.70
2022-10-22T17:19:40.413Z,14.50
2022-10-22T17:25:17.079Z,14.30
2022-10-22T17:30:44.848Z,14.10
2022-10-22T17:36:13.770Z,13.90
2022-10-22T17:41:41.771Z,13.80
2022-10-22T17:47:10.732Z,13.60
2022-10-22T17:52:42.218Z,13.50
2022-10-22T17:58:10.537Z,13.30
2022-10-22T18:03:38.463Z,13.20
2022-10-22T18:09:10.665Z,13.00
2022-10-22T18:14:40.991Z,12.90
2022-10-22T18:20:09.877Z,12.90
2022-10-22T18:25:39.616Z,12.90
2022-10-22T18:31:10.108Z,12.80
2022-10-22T18:36:43.107Z,12.70
2022-10-22T18:42:11.475Z,12.70
2022-10-22T18:47:42.919Z,12.60
2022-10-22T18:53:13.447Z,12.50
2022-10-22T18:58:46.239Z,12.40
2022-10-22T19:04:14.696Z,12.30
2022-10-22T19:09:43.777Z,12.30
2022-10-22T19:15:11.976Z,12.20
2022-10-22T19:20:40.045Z,12.10
2022-10-22T19:26:13.592Z,12.00
2022-10-22T19:31:41.846Z,12.00
2022-10-22T19:37:12.608Z,11.90
2022-10-22T19:42:41.141Z,11.90
2022-10-22T19:48:09.687Z,11.80
2022-10-22T19:53:38.998Z,11.70
2022-10-22T19:59:07.086Z,11.70
2022-10-22T20:04:39.408Z,11.60
2022-10-22T20:10:08.140Z,11.60
2022-10-22T20:15:36.800Z,11.50
2022-10-22T20:21:13.408Z,11.40
2022-10-22T20:26:45.336Z,11.40
2022-10-22T20:32:13.464Z,11.30
2022-10-22T20:37:41.518Z,11.30
2022-10-22T20:43:11.723Z,11.30
2022-10-22T20:48:40.412Z,11.30
2022-10-22T20:54:09.050Z,11.20
2022-10-22T20:59:37.007Z,11.20
2022-10-22T21:05:05.324Z,11.20
2022-10-22T21:10:34.240Z,11.10
2022-10-22T21:16:09.250Z,11.10
2022-10-22T21:21:37.584Z,11.10
2022-10-22T21:27:07.452Z,11.10
2022-10-22T21:32:35.414Z,11.00
2022-10-22T21:38:05.263Z,11.00
2022-10-22T21:43:33.465Z,11.00
2022-10-22T21:49:03.533Z,10.90
2022-10-22T21:54:31.355Z,10.90
2022-10-22T21:59:59.274Z,10.90
2022-10-22T22:05:28.402Z,10.80
2022-10-22T22:11:06.312Z,10.80
2022-10-22T22:16:35.282Z,10.80
2022-10-22T22:22:03.074Z,10.70
2022-10-22T22:27:30.840Z,10.70
2022-10-22T22:32:58.615Z,10.70
2022-10-22T22:38:26.419Z,10.60
2022-10-22T22:49:27.543Z,10.60
2022-10-22T22:54:55.351Z,10.50
2022-10-22T23:00:23.659Z,10.50
2022-10-22T23:05:51.552Z,10.40
2022-10-22T23:11:21.786Z,10.40
2022-10-22T23:16:51.955Z,10.40
2022-10-22T23:22:19.644Z,10.40
2022-10-22T23:27:47.369Z,10.30
2022-10-22T23:33:16.397Z,10.30
2022-10-22T23:38:44.578Z,10.20
2022-10-22T23:44:12.934Z,10.20
2022-10-22T23:49:40.775Z,10.10
2022-10-22T23:55:08.995Z,10.10
